createdAt,value
2019-05-29T00:00:14.339Z,7.30
2019-05-29T00:02:43.272Z,7.37
2019-05-29T00:05:12.289Z,6.70
2019-05-29T00:07:40.910Z,7.37
2019-05-29T00:10:10.487Z,7.13
2019-05-29T00:12:39.237Z,6.70
2019-05-29T00:15:08.416Z,8.73
2019-05-29T00:17:37.046Z,9.17
2019-05-29T00:20:06.438Z,8.67
2019-05-29T00:22:35.150Z,9.57
2019-05-29T00:25:04.764Z,8.57
2019-05-29T00:27:33.362Z,9.30
2019-05-29T00:30:01.912Z,8.60
2019-05-29T00:32:30.520Z,8.07
2019-05-29T00:34:59.231Z,7.40
2019-05-29T00:37:27.786Z,9.57
2019-05-29T00:39:56.406Z,8.80
2019-05-29T00:42:25.138Z,7.73
2019-05-29T00:44:53.604Z,7.03
2019-05-29T00:47:22.267Z,7.43
2019-05-29T00:49:50.846Z,8.00
2019-05-29T00:52:19.431Z,8.20
2019-05-29T00:54:47.963Z,7.50
2019-05-29T00:57:17.074Z,8.50
2019-05-29T00:59:45.823Z,7.80
2019-05-29T01:02:15.763Z,9.33
2019-05-29T01:04:51.805Z,7.70
2019-05-29T01:07:20.583Z,9.27
2019-05-29T01:09:49.382Z,8.77
2019-05-29T01:12:19.080Z,9.13
2019-05-29T01:14:50.438Z,9.27
2019-05-29T01:17:18.037Z,10.47
2019-05-29T01:19:46.611Z,7.87
2019-05-29T01:22:16.153Z,7.53
2019-05-29T01:24:44.841Z,9.00
2019-05-29T01:27:14.982Z,9.53
2019-05-29T01:29:43.701Z,9.53
2019-05-29T01:32:13.462Z,8.33
2019-05-29T01:34:42.303Z,8.70
2019-05-29T01:37:11.036Z,8.13
2019-05-29T01:39:39.600Z,8.67
2019-05-29T01:42:08.188Z,9.63
2019-05-29T01:44:36.756Z,8.83
2019-05-29T01:47:05.306Z,8.40
2019-05-29T01:49:33.953Z,9.17
2019-05-29T01:52:02.437Z,9.07
2019-05-29T01:54:31.013Z,9.73
2019-05-29T01:57:00.252Z,11.23
2019-05-29T01:59:28.829Z,10.03
2019-05-29T02:01:57.428Z,10.40
2019-05-29T02:04:26.090Z,9.47
2019-05-29T02:06:54.823Z,10.53
2019-05-29T02:09:24.273Z,10.60
2019-05-29T02:11:52.977Z,9.53
2019-05-29T02:14:22.630Z,9.00
2019-05-29T02:16:51.354Z,10.27
2019-05-29T02:19:20.040Z,8.50
2019-05-29T02:21:48.773Z,9.90
2019-05-29T02:24:17.349Z,10.07
2019-05-29T02:26:45.936Z,9.40
2019-05-29T02:29:14.589Z,9.43
2019-05-29T02:31:43.271Z,10.40
2019-05-29T02:34:11.816Z,10.43
2019-05-29T02:36:40.388Z,10.83
2019-05-29T02:39:09.073Z,10.90
2019-05-29T02:41:37.739Z,11.60
2019-05-29T02:44:06.440Z,9.83
2019-05-29T02:46:35.250Z,10.27
2019-05-29T02:49:03.895Z,9.80
2019-05-29T02:51:32.472Z,9.87
2019-05-29T02:54:01.167Z,10.63
2019-05-29T02:56:31.303Z,10.00
2019-05-29T02:59:00.117Z,10.43
2019-05-29T03:01:29.770Z,10.43
2019-05-29T03:03:58.525Z,11.57
2019-05-29T03:06:28.070Z,11.10
2019-05-29T03:08:57.132Z,10.13
2019-05-29T03:11:27.133Z,10.60
2019-05-29T03:13:55.892Z,10.80
2019-05-29T03:16:26.657Z,10.93
2019-05-29T03:18:54.918Z,10.00
2019-05-29T03:21:24.107Z,9.93
2019-05-29T03:23:52.966Z,10.17
2019-05-29T03:26:24.616Z,9.60
2019-05-29T03:29:11.064Z,9.67
2019-05-29T03:31:46.911Z,9.50
2019-05-29T03:34:09.855Z,10.17
2019-05-29T03:36:46.976Z,9.50
2019-05-29T03:39:08.664Z,10.20
2019-05-29T03:41:38.978Z,10.47
2019-05-29T03:44:10.248Z,9.73
2019-05-29T03:46:44.688Z,9.70
2019-05-29T03:49:08.031Z,10.77
2019-05-29T03:51:38.404Z,10.43
2019-05-29T03:54:06.931Z,11.43
2019-05-29T03:56:35.564Z,11.03
2019-05-29T03:59:04.319Z,11.43
2019-05-29T04:01:33.273Z,10.80
2019-05-29T04:04:03.228Z,10.37
2019-05-29T04:06:33.375Z,11.17
2019-05-29T04:09:02.258Z,9.80
2019-05-29T04:11:31.441Z,12.13
2019-05-29T04:14:00.235Z,10.03
2019-05-29T04:16:47.487Z,10.13
2019-05-29T04:19:03.215Z,9.80
2019-05-29T04:21:52.686Z,11.17
2019-05-29T04:24:24.118Z,10.03
2019-05-29T04:26:54.383Z,10.47
2019-05-29T04:29:24.122Z,9.23
2019-05-29T04:31:52.759Z,9.07
2019-05-29T04:34:21.392Z,10.10
2019-05-29T04:36:50.004Z,10.40
2019-05-29T04:39:18.607Z,9.53
2019-05-29T04:41:47.308Z,10.03
2019-05-29T04:44:16.061Z,9.67
2019-05-29T04:46:44.687Z,10.17
2019-05-29T04:49:13.181Z,10.70
2019-05-29T04:51:41.773Z,9.30
2019-05-29T04:54:10.323Z,8.80
2019-05-29T04:56:39.246Z,9.43
2019-05-29T04:59:07.867Z,9.47
2019-05-29T05:01:37.133Z,8.87
2019-05-29T05:04:05.955Z,8.30
2019-05-29T05:06:35.306Z,8.70
2019-05-29T05:09:05.571Z,8.30
2019-05-29T05:11:35.404Z,8.93
2019-05-29T05:14:05.676Z,7.73
2019-05-29T05:16:34.323Z,7.23
2019-05-29T05:19:02.997Z,7.23
2019-05-29T05:21:31.998Z,7.03
2019-05-29T05:24:00.832Z,6.67
2019-05-29T05:26:30.052Z,7.20
2019-05-29T05:28:58.783Z,7.77
2019-05-29T05:31:27.400Z,7.33
2019-05-29T05:33:55.963Z,7.90
2019-05-29T05:36:24.578Z,7.57
2019-05-29T05:38:53.184Z,6.70
2019-05-29T05:41:21.735Z,6.93
2019-05-29T05:43:50.317Z,6.70
2019-05-29T05:46:18.953Z,7.00
2019-05-29T05:48:47.497Z,7.13
2019-05-29T05:51:16.066Z,5.90
2019-05-29T05:53:44.605Z,7.20
2019-05-29T05:56:13.098Z,6.73
2019-05-29T05:58:42.268Z,6.40
2019-05-29T06:01:11.442Z,6.77
2019-05-29T06:03:40.998Z,6.20
2019-05-29T06:06:10.831Z,5.90
2019-05-29T06:08:40.233Z,5.57
2019-05-29T06:11:08.865Z,5.97
2019-05-29T06:13:38.381Z,5.70
2019-05-29T06:16:07.067Z,6.00
2019-05-29T06:18:36.553Z,5.67
2019-05-29T06:21:05.142Z,5.70
2019-05-29T06:23:34.804Z,6.27
2019-05-29T06:26:03.767Z,5.77
2019-05-29T06:28:33.021Z,5.47
2019-05-29T06:31:01.709Z,5.30
2019-05-29T06:33:30.251Z,4.83
2019-05-29T06:35:58.766Z,5.60
2019-05-29T06:38:27.406Z,4.70
2019-05-29T06:40:56.037Z,4.70
2019-05-29T06:43:25.957Z,4.67
2019-05-29T06:45:55.126Z,3.97
2019-05-29T06:48:42.595Z,4.13
2019-05-29T06:51:18.767Z,4.90
2019-05-29T06:53:48.348Z,4.40
2019-05-29T06:56:17.632Z,3.87
2019-05-29T06:58:46.591Z,3.67
2019-05-29T07:01:15.220Z,3.87
2019-05-29T07:03:44.144Z,3.70
2019-05-29T07:06:12.784Z,3.40
2019-05-29T07:08:45.036Z,3.40
2019-05-29T07:11:11.740Z,3.60
2019-05-29T07:13:43.316Z,3.10
2019-05-29T07:16:11.014Z,3.83
2019-05-29T07:18:45.371Z,3.67
2019-05-29T07:21:09.966Z,3.80
2019-05-29T07:23:38.815Z,3.43
2019-05-29T07:26:07.587Z,3.10
2019-05-29T07:28:37.206Z,3.40
2019-05-29T07:31:06.025Z,3.40
2019-05-29T07:33:34.598Z,3.07
2019-05-29T07:36:03.158Z,3.10
2019-05-29T07:38:31.776Z,3.03
2019-05-29T07:41:00.395Z,3.00
2019-05-29T07:43:29.035Z,3.10
2019-05-29T07:45:57.535Z,3.13
2019-05-29T07:48:26.203Z,2.90
2019-05-29T07:51:06.630Z,3.00
2019-05-29T07:53:25.120Z,3.13
2019-05-29T07:55:53.701Z,3.37
2019-05-29T07:58:22.342Z,3.00
2019-05-29T08:01:09.336Z,3.40
2019-05-29T08:03:21.230Z,4.03
2019-05-29T08:05:52.640Z,4.07
2019-05-29T08:08:20.266Z,3.70
2019-05-29T08:10:49.732Z,4.23
2019-05-29T08:13:18.371Z,3.70
2019-05-29T08:15:58.424Z,3.70
2019-05-29T08:18:17.196Z,4.30
2019-05-29T08:20:46.045Z,3.93
2019-05-29T08:23:14.675Z,4.13
2019-05-29T08:25:43.476Z,4.30
2019-05-29T08:28:12.092Z,4.42
2019-05-29T08:30:41.159Z,4.23
2019-05-29T08:33:10.810Z,4.70
2019-05-29T08:35:41.345Z,4.83
2019-05-29T08:38:09.679Z,4.77
2019-05-29T08:40:38.227Z,4.50
2019-05-29T08:43:06.883Z,4.63
2019-05-29T08:45:35.450Z,4.40
2019-05-29T08:48:04.573Z,3.90
2019-05-29T08:50:33.234Z,4.40
2019-05-29T08:53:02.766Z,4.73
2019-05-29T08:55:31.312Z,4.90
2019-05-29T08:58:00.062Z,6.70
2019-05-29T09:00:28.793Z,4.53
2019-05-29T09:02:57.428Z,4.53
2019-05-29T09:05:26.091Z,5.27
2019-05-29T09:07:54.803Z,4.77
2019-05-29T09:10:23.509Z,5.53
2019-05-29T09:13:03.939Z,5.97
2019-05-29T09:15:23.166Z,5.33
2019-05-29T09:18:00.299Z,6.40
2019-05-29T09:20:57.179Z,5.37
2019-05-29T09:22:59.234Z,5.57
2019-05-29T09:25:27.933Z,6.27
2019-05-29T09:27:56.612Z,6.67
2019-05-29T09:30:25.345Z,7.43
2019-05-29T09:32:53.933Z,5.47
2019-05-29T09:35:23.677Z,5.80
2019-05-29T09:37:52.948Z,6.60
2019-05-29T09:40:22.952Z,5.43
2019-05-29T09:42:51.978Z,6.70
2019-05-29T09:45:21.575Z,6.17
2019-05-29T09:47:50.547Z,6.20
2019-05-29T09:50:22.792Z,6.60
2019-05-29T09:52:50.158Z,8.03
2019-05-29T09:55:19.360Z,6.30
2019-05-29T09:57:48.184Z,5.83
2019-05-29T10:00:17.468Z,5.27
2019-05-29T10:02:46.224Z,4.87
2019-05-29T10:05:15.114Z,5.77
2019-05-29T10:07:45.309Z,5.73
2019-05-29T10:10:14.819Z,6.53
2019-05-29T10:12:43.550Z,6.30
2019-05-29T10:15:13.377Z,5.67
2019-05-29T10:17:42.455Z,3.93
2019-05-29T10:20:13.787Z,3.73
2019-05-29T10:22:42.722Z,3.60
2019-05-29T10:25:12.237Z,4.93
2019-05-29T10:27:41.056Z,5.00
2019-05-29T10:30:11.954Z,4.97
2019-05-29T10:32:42.397Z,4.87
2019-05-29T10:35:11.046Z,4.00
2019-05-29T10:37:39.615Z,4.50
2019-05-29T10:40:11.054Z,4.07
2019-05-29T10:42:39.658Z,5.37
2019-05-29T10:45:09.592Z,5.50
2019-05-29T10:47:38.312Z,4.77
2019-05-29T10:50:10.124Z,5.63
2019-05-29T10:52:39.112Z,6.13
2019-05-29T10:55:09.339Z,5.10
2019-05-29T10:57:37.817Z,6.83
2019-05-29T11:00:07.547Z,6.03
2019-05-29T11:02:36.193Z,7.07
2019-05-29T11:05:06.225Z,6.80
2019-05-29T11:07:34.956Z,6.43
2019-05-29T11:10:07.586Z,6.33
2019-05-29T11:12:39.331Z,6.33
2019-05-29T11:15:20.839Z,6.62
2019-05-29T11:17:47.159Z,7.43
2019-05-29T11:20:16.464Z,5.63
2019-05-29T11:22:45.156Z,5.73
2019-05-29T11:25:22.629Z,5.07
2019-05-29T11:27:44.583Z,5.50
2019-05-29T11:30:13.438Z,4.40
2019-05-29T11:32:42.257Z,4.43
2019-05-29T11:35:11.772Z,3.43
2019-05-29T11:37:40.260Z,3.83
2019-05-29T11:40:09.969Z,4.33
2019-05-29T11:42:38.553Z,3.67
2019-05-29T11:45:08.947Z,4.30
2019-05-29T11:47:37.589Z,3.77
2019-05-29T11:50:19.219Z,4.30
2019-05-29T11:52:43.248Z,4.40
2019-05-29T11:55:12.620Z,3.73
2019-05-29T11:58:01.969Z,3.67
2019-05-29T12:00:30.872Z,3.60
2019-05-29T12:02:59.682Z,3.23
2019-05-29T12:05:28.345Z,2.80
2019-05-29T12:07:57.525Z,3.47
2019-05-29T12:10:26.446Z,2.80
2019-05-29T12:12:55.478Z,3.17
2019-05-29T12:15:24.251Z,3.33
2019-05-29T12:17:57.907Z,3.60
2019-05-29T12:20:28.081Z,3.20
2019-05-29T12:23:16.285Z,3.50
2019-05-29T12:25:24.017Z,2.97
2019-05-29T12:27:52.778Z,2.60
2019-05-29T12:30:21.769Z,3.13
2019-05-29T12:32:50.478Z,2.83
2019-05-29T12:35:19.294Z,3.60
2019-05-29T12:37:47.871Z,2.47
2019-05-29T12:40:17.076Z,2.30
2019-05-29T12:42:45.736Z,3.50
2019-05-29T12:45:14.760Z,3.70
2019-05-29T12:47:43.410Z,3.10
2019-05-29T12:50:16.623Z,3.00
2019-05-29T12:52:45.476Z,3.37
2019-05-29T12:55:14.751Z,2.97
2019-05-29T12:57:43.473Z,3.47
2019-05-29T13:00:14.095Z,3.33
2019-05-29T13:02:43.552Z,3.10
2019-05-29T13:05:20.163Z,3.57
2019-05-29T13:07:44.672Z,3.67
2019-05-29T13:10:29.399Z,3.83
2019-05-29T13:12:45.482Z,3.37
2019-05-29T13:15:16.257Z,3.97
2019-05-29T13:17:44.968Z,3.37
2019-05-29T13:20:21.693Z,3.60
2019-05-29T13:22:44.761Z,3.33
2019-05-29T13:25:14.747Z,3.37
2019-05-29T13:27:43.457Z,3.20
2019-05-29T13:30:13.953Z,3.50
2019-05-29T13:32:43.029Z,3.63
2019-05-29T13:35:12.190Z,3.50
2019-05-29T13:37:40.812Z,3.77
2019-05-29T13:40:09.723Z,3.57
2019-05-29T13:42:38.403Z,3.60
2019-05-29T13:45:17.363Z,3.60
2019-05-29T13:47:38.494Z,3.00
2019-05-29T13:50:11.887Z,3.30
2019-05-29T13:52:38.533Z,3.10
2019-05-29T13:55:07.925Z,3.30
2019-05-29T13:57:39.527Z,3.30
2019-05-29T14:00:30.301Z,3.17
2019-05-29T14:02:39.132Z,3.37
2019-05-29T14:05:09.172Z,3.57
2019-05-29T14:07:38.019Z,3.50
2019-05-29T14:10:27.471Z,3.27
2019-05-29T14:12:56.315Z,3.40
2019-05-29T14:15:25.630Z,2.90
2019-05-29T14:17:54.207Z,3.30
2019-05-29T14:20:22.887Z,3.00
2019-05-29T14:22:51.501Z,2.60
2019-05-29T14:25:21.784Z,2.53
2019-05-29T14:27:50.345Z,2.40
2019-05-29T14:30:19.427Z,2.60
2019-05-29T14:32:48.061Z,2.97
2019-05-29T14:35:16.977Z,2.27
2019-05-29T14:37:45.783Z,2.63
2019-05-29T14:40:15.067Z,2.70
2019-05-29T14:42:44.057Z,2.30
2019-05-29T14:45:14.158Z,2.57
2019-05-29T14:47:42.893Z,1.93
2019-05-29T14:50:13.371Z,1.73
2019-05-29T14:52:42.070Z,2.27
2019-05-29T14:55:16.155Z,2.23
2019-05-29T14:57:41.403Z,2.27
2019-05-29T15:00:23.203Z,2.20
2019-05-29T15:02:42.604Z,2.50
2019-05-29T15:05:12.342Z,2.53
2019-05-29T15:07:42.096Z,2.67
2019-05-29T15:10:22.649Z,2.40
2019-05-29T15:12:41.719Z,2.77
2019-05-29T15:15:13.547Z,3.27
2019-05-29T15:17:41.513Z,2.93
2019-05-29T15:20:12.513Z,3.03
2019-05-29T15:23:01.146Z,2.50
2019-05-29T15:25:29.766Z,2.70
2019-05-29T15:27:58.325Z,2.80
2019-05-29T15:30:26.957Z,2.80
2019-05-29T15:32:55.683Z,2.90
2019-05-29T15:35:24.267Z,3.50
2019-05-29T15:37:52.985Z,2.63
2019-05-29T15:40:21.877Z,2.67
2019-05-29T15:42:50.350Z,2.83
2019-05-29T15:45:20.599Z,3.13
2019-05-29T15:47:49.378Z,2.87
2019-05-29T15:50:18.272Z,3.00
2019-05-29T15:52:46.850Z,2.50
2019-05-29T15:55:28.436Z,3.30
2019-05-29T15:57:47.271Z,2.63
2019-05-29T16:00:35.646Z,2.60
2019-05-29T16:03:04.332Z,2.60
2019-05-29T16:05:32.970Z,2.93
2019-05-29T16:08:01.684Z,2.87
2019-05-29T16:10:50.243Z,2.90
2019-05-29T16:13:19.107Z,2.67
2019-05-29T16:15:47.983Z,2.70
2019-05-29T16:18:23.200Z,2.40
2019-05-29T16:20:46.975Z,2.90
2019-05-29T16:23:30.970Z,2.73
2019-05-29T16:25:45.943Z,2.40
2019-05-29T16:28:15.164Z,2.37
2019-05-29T16:36:05.832Z,3.20
2019-05-29T16:38:42.127Z,2.70
2019-05-29T16:41:15.913Z,2.70
2019-05-29T16:43:46.925Z,3.17
2019-05-29T16:46:24.691Z,3.00
2019-05-29T16:48:53.571Z,2.90
2019-05-29T16:51:23.049Z,3.17
2019-05-29T16:53:51.784Z,3.07
2019-05-29T16:56:21.219Z,3.37
2019-05-29T16:58:49.961Z,3.00
2019-05-29T17:01:38.495Z,3.23
2019-05-29T17:04:07.194Z,2.87
2019-05-29T17:06:35.908Z,3.20
2019-05-29T17:09:07.488Z,3.23
2019-05-29T17:11:36.128Z,3.43
2019-05-29T17:14:05.053Z,4.17
2019-05-29T17:16:33.741Z,3.50
2019-05-29T17:19:03.188Z,3.90
2019-05-29T17:21:51.583Z,3.80
2019-05-29T17:24:20.914Z,3.73
2019-05-29T17:26:49.653Z,3.87
2019-05-29T17:29:18.880Z,4.40
2019-05-29T17:31:47.963Z,3.90
2019-05-29T17:34:16.911Z,3.83
2019-05-29T17:36:45.647Z,4.67
2019-05-29T17:39:15.278Z,4.37
2019-05-29T17:41:43.992Z,4.40
2019-05-29T17:44:12.798Z,4.30
2019-05-29T17:46:41.526Z,4.10
2019-05-29T17:49:10.256Z,5.17
2019-05-29T17:51:38.986Z,4.70
2019-05-29T17:54:07.689Z,5.00
2019-05-29T17:56:37.154Z,5.17
2019-05-29T17:59:06.205Z,4.90
2019-05-29T18:01:35.036Z,4.73
2019-05-29T18:04:03.599Z,4.60
2019-05-29T18:06:32.275Z,5.13
2019-05-29T18:09:00.828Z,4.10
2019-05-29T18:11:29.319Z,4.40
2019-05-29T18:13:57.967Z,4.20
2019-05-29T18:16:27.753Z,4.50
2019-05-29T18:18:56.469Z,4.30
2019-05-29T18:21:25.778Z,4.23
2019-05-29T18:23:54.427Z,4.70
2019-05-29T18:26:24.110Z,4.17
2019-05-29T18:28:53.089Z,4.80
2019-05-29T18:31:22.531Z,4.37
2019-05-29T18:33:51.140Z,4.07
2019-05-29T18:36:20.960Z,4.50
2019-05-29T18:38:49.540Z,4.57
2019-05-29T18:41:18.078Z,4.40
2019-05-29T18:43:46.623Z,4.87
2019-05-29T18:46:15.260Z,6.27
2019-05-29T18:48:43.861Z,4.87
2019-05-29T18:51:12.555Z,4.87
2019-05-29T18:53:41.274Z,5.40
2019-05-29T18:56:09.966Z,5.00
2019-05-29T18:58:38.552Z,4.83
2019-05-29T19:01:08.173Z,5.40
2019-05-29T19:03:40.261Z,5.53
2019-05-29T19:06:07.163Z,4.83
2019-05-29T19:08:35.769Z,5.13
2019-05-29T19:11:04.730Z,5.77
2019-05-29T19:13:33.375Z,6.27
2019-05-29T19:16:02.142Z,5.20
2019-05-29T19:18:30.761Z,4.70
2019-05-29T19:20:59.336Z,5.27
2019-05-29T19:23:28.750Z,5.40
2019-05-29T19:25:57.484Z,5.20
2019-05-29T19:28:26.515Z,6.27
2019-05-29T19:30:55.155Z,5.30
2019-05-29T19:33:23.850Z,8.17
2019-05-29T19:35:52.562Z,5.50
2019-05-29T19:38:21.106Z,5.43
2019-05-29T19:40:49.774Z,5.00
2019-05-29T19:43:18.561Z,5.70
2019-05-29T19:45:47.185Z,5.23
2019-05-29T19:48:15.892Z,6.17
2019-05-29T19:50:44.559Z,5.60
2019-05-29T19:53:13.116Z,5.00
2019-05-29T19:55:41.589Z,4.63
2019-05-29T19:58:10.245Z,4.63
2019-05-29T20:00:38.799Z,5.07
2019-05-29T20:03:07.299Z,4.70
2019-05-29T20:05:37.022Z,4.07
2019-05-29T20:08:05.819Z,4.13
2019-05-29T20:10:35.467Z,4.20
2019-05-29T20:13:04.368Z,4.83
2019-05-29T20:15:33.948Z,3.90
2019-05-29T20:18:02.668Z,4.40
2019-05-29T20:20:32.307Z,3.67
2019-05-29T20:23:02.302Z,4.23
2019-05-29T20:25:31.052Z,4.47
2019-05-29T20:28:06.442Z,3.90
2019-05-29T20:30:30.292Z,3.60
2019-05-29T20:32:58.930Z,3.60
2019-05-29T20:35:27.582Z,3.90
2019-05-29T20:37:56.091Z,3.67
2019-05-29T20:40:24.674Z,4.20
2019-05-29T20:42:53.980Z,4.20
2019-05-29T20:45:22.563Z,3.53
2019-05-29T20:47:51.377Z,3.60
2019-05-29T20:50:21.535Z,3.97
2019-05-29T20:52:50.227Z,4.20
2019-05-29T20:55:18.954Z,3.93
2019-05-29T20:57:47.625Z,3.90
2019-05-29T21:00:18.496Z,3.53
2019-05-29T21:02:47.311Z,3.90
2019-05-29T21:05:16.488Z,3.90
2019-05-29T21:07:46.884Z,4.60
2019-05-29T21:10:16.135Z,3.37
2019-05-29T21:12:47.444Z,3.97
2019-05-29T21:15:15.488Z,4.60
2019-05-29T21:17:44.135Z,4.53
2019-05-29T21:20:12.931Z,3.90
2019-05-29T21:22:42.818Z,4.07
2019-05-29T21:25:15.895Z,3.73
2019-05-29T21:27:46.679Z,3.80
2019-05-29T21:30:14.321Z,4.57
2019-05-29T21:32:44.012Z,4.33
2019-05-29T21:35:13.078Z,4.80
2019-05-29T21:37:42.475Z,4.40
2019-05-29T21:40:11.738Z,5.00
2019-05-29T21:42:40.596Z,4.57
2019-05-29T21:45:09.572Z,4.90
2019-05-29T21:47:38.988Z,4.87
2019-05-29T21:50:08.724Z,5.73
2019-05-29T21:52:37.596Z,4.93
2019-05-29T21:55:06.937Z,5.50
2019-05-29T21:57:35.694Z,5.13
2019-05-29T22:00:07.580Z,5.80
2019-05-29T22:02:36.209Z,6.73
2019-05-29T22:05:06.625Z,5.90
2019-05-29T22:07:35.364Z,6.67
2019-05-29T22:10:06.544Z,6.60
2019-05-29T22:12:35.176Z,6.27
2019-05-29T22:15:04.596Z,6.33
2019-05-29T22:17:33.408Z,7.10
2019-05-29T22:20:02.225Z,7.70
2019-05-29T22:22:31.054Z,7.70
2019-05-29T22:24:59.611Z,6.63
2019-05-29T22:27:28.187Z,7.03
2019-05-29T22:29:57.380Z,7.37
2019-05-29T22:32:26.006Z,8.17
2019-05-29T22:34:55.435Z,6.73
2019-05-29T22:37:24.197Z,7.33
2019-05-29T22:39:53.605Z,7.97
2019-05-29T22:42:22.443Z,7.70
2019-05-29T22:44:51.610Z,7.57
2019-05-29T22:47:20.279Z,8.00
2019-05-29T22:49:48.838Z,6.70
2019-05-29T22:52:17.457Z,8.03
2019-05-29T22:54:45.951Z,6.53
2019-05-29T22:57:14.519Z,8.50
2019-05-29T22:59:43.009Z,6.93
2019-05-29T23:02:11.577Z,6.77
2019-05-29T23:04:40.313Z,7.00
2019-05-29T23:07:09.142Z,7.50
2019-05-29T23:09:37.851Z,6.40
2019-05-29T23:12:06.569Z,7.30
2019-05-29T23:14:35.147Z,6.83
2019-05-29T23:17:03.784Z,7.53
2019-05-29T23:19:32.435Z,7.50
2019-05-29T23:22:01.160Z,7.00
2019-05-29T23:24:29.765Z,6.60
2019-05-29T23:26:58.769Z,6.33
2019-05-29T23:29:27.534Z,6.33
2019-05-29T23:31:56.835Z,5.60
2019-05-29T23:34:25.490Z,6.30
2019-05-29T23:36:55.050Z,6.30
2019-05-29T23:39:23.662Z,6.03
2019-05-29T23:41:53.228Z,6.57
2019-05-29T23:44:21.937Z,6.47
2019-05-29T23:46:50.413Z,6.07
2019-05-29T23:49:18.976Z,6.27
2019-05-29T23:51:47.459Z,5.97
2019-05-29T23:54:16.006Z,5.83
2019-05-29T23:56:44.625Z,6.40
2019-05-29T23:59:14.544Z,6.07
